메인 페이지
METAR-TAF:

METAR-TAF

공항 :

Resolute, 누나부트, 캐나다

위도: 74-43N, 경도: 094-59W, 고도: 67m

현재 날씨관측

예보는 59분 전, 04:00시(UTC)에 발표되었습니다.
4kt
온도 -23°C
습도 84%
기압 1009 hPa
시정: 24.1km
고도 4000ft 상공 구름 조금
고도 10000ft 상공 구름 보통
빙정

METAR: CYRB 250400Z 19004KT 15SM IC FEW040 SCT100 M23/M25 A2980 RMK SC2AC2 PCPN VRY LGT SLP105

시각: 23:59 (04:59 UTC)

예보

예보는 5 시간 21분 전, 23:38시(UTC)에 발표되었습니다.
예보 대상 시간: 25일 00시부터 25일 24시까지 (UTC)
여러 방향의 바람 3kt
시정: 10km
고도 4000ft 상공 구름 보통
고도 10000ft 상공 구름 많음
일시적
25일 00시부터 25일 14시까지 (UTC)
시정: 8.0km
고도 4000ft 상공 구름 많음
고도 10000ft 상공 흐림
약한눈
25일 1400시부터 (UTC)
여러 방향의 바람 3kt
시정: 10km
고도 2000ft 상공 구름 많음
고도 18000ft 상공 흐림
약한눈
전환 중
25일 16시부터 25일 18시까지 (UTC)
북서8kt

TAF: CYRB 242338Z 2500/2524 VRB03KT P6SM SCT040 BKN100 TEMPO 2500/2514 5SM -SN BKN040 OVC100 FM251400 VRB03KT P6SM -SN BKN020 OVC180 BECMG 2516/2518 32008KT RMK NXT FCST BY 250600Z

4,000개 이상의 공항 관측 자료 및 예보 (METAR 및 TAF 보고).

지도상에서 검색 가능한 기상관측소가 노란 점과 빨간 점으로 표시되어 있습니다.

기상관측소 명을 보려면 표시 위로 마우스를 이동하세요.

날씨 관측과 예보를 보려면 클릭하세요.

지도 변경 : 확대하려면 엑스 표시가 있는 녹색 버튼, 축소하려면 빼기 표시가 있는 녹색 버튼, 다음 페이지의 지도를 보려면 녹색 화살표를 클릭하세요.


METAR-TAF: